createdAt,value
2018-07-23T00:01:35.718Z,8.07
2018-07-23T00:04:05.359Z,8.70
2018-07-23T00:06:33.999Z,8.73
2018-07-23T00:09:02.830Z,8.37
2018-07-23T00:11:31.625Z,8.17
2018-07-23T00:14:00.293Z,9.07
2018-07-23T00:16:29.037Z,9.33
2018-07-23T00:18:57.801Z,8.73
2018-07-23T00:21:26.577Z,8.10
2018-07-23T00:23:55.299Z,8.27
2018-07-23T00:26:24.006Z,8.10
2018-07-23T00:28:52.750Z,9.33
2018-07-23T00:31:21.592Z,8.43
2018-07-23T00:33:50.285Z,8.73
2018-07-23T00:36:19.005Z,7.90
2018-07-23T00:38:47.727Z,6.93
2018-07-23T00:41:16.510Z,9.47
2018-07-23T00:43:45.898Z,9.20
2018-07-23T00:46:14.625Z,8.80
2018-07-23T00:48:43.333Z,7.90
2018-07-23T00:51:12.036Z,9.33
2018-07-23T00:53:40.701Z,8.17
2018-07-23T00:56:09.453Z,8.90
2018-07-23T00:58:38.188Z,9.87
2018-07-23T01:01:07.097Z,10.03
2018-07-23T01:03:35.772Z,8.93
2018-07-23T01:06:05.655Z,9.07
2018-07-23T01:08:34.392Z,8.67
2018-07-23T01:11:03.202Z,8.90
2018-07-23T01:13:31.977Z,9.70
2018-07-23T01:16:00.655Z,9.43
2018-07-23T01:18:29.398Z,8.93
2018-07-23T01:20:58.057Z,9.77
2018-07-23T01:23:26.859Z,9.60
2018-07-23T01:25:55.663Z,9.17
2018-07-23T01:28:24.356Z,9.77
2018-07-23T01:30:53.079Z,10.33
2018-07-23T01:33:21.838Z,9.03
2018-07-23T01:35:50.605Z,10.30
2018-07-23T01:38:19.303Z,10.57
2018-07-23T01:40:48.015Z,9.90
2018-07-23T01:43:16.713Z,10.87
2018-07-23T01:45:45.436Z,9.57
2018-07-23T01:48:14.111Z,9.50
2018-07-23T01:50:42.848Z,10.33
2018-07-23T01:53:11.575Z,10.20
2018-07-23T01:55:40.355Z,9.47
2018-07-23T01:58:09.072Z,9.50
2018-07-23T02:00:37.787Z,10.20
2018-07-23T02:03:06.421Z,10.47
2018-07-23T02:05:35.216Z,9.40
2018-07-23T02:08:03.946Z,9.87
2018-07-23T02:10:32.699Z,10.10
2018-07-23T02:13:01.475Z,9.80
2018-07-23T02:15:30.229Z,9.97
2018-07-23T02:17:58.928Z,10.37
2018-07-23T02:20:27.765Z,9.57
2018-07-23T02:22:56.446Z,9.53
2018-07-23T02:25:26.214Z,9.80
2018-07-23T02:27:56.373Z,9.53
2018-07-23T02:30:25.049Z,10.00
2018-07-23T02:32:53.788Z,9.57
2018-07-23T02:35:22.504Z,9.23
2018-07-23T02:37:51.201Z,10.20
2018-07-23T02:40:19.975Z,10.17
2018-07-23T02:42:48.679Z,10.20
2018-07-23T02:45:17.319Z,9.80
2018-07-23T02:47:46.076Z,9.70
2018-07-23T02:50:14.863Z,8.63
2018-07-23T02:52:43.570Z,9.47
2018-07-23T02:55:12.275Z,9.20
2018-07-23T02:57:40.968Z,9.00
2018-07-23T03:00:09.710Z,9.87
2018-07-23T03:02:38.445Z,9.53
2018-07-23T03:05:07.198Z,10.07
2018-07-23T03:07:37.228Z,9.97
2018-07-23T03:10:06.146Z,10.93
2018-07-23T03:12:34.807Z,10.17
2018-07-23T03:15:03.690Z,7.80
2018-07-23T03:17:32.530Z,7.63
2018-07-23T03:20:01.260Z,9.87
2018-07-23T03:22:30.396Z,9.47
2018-07-23T03:24:59.113Z,8.63
2018-07-23T03:27:27.819Z,9.23
2018-07-23T03:29:56.647Z,8.00
2018-07-23T03:32:25.362Z,8.17
2018-07-23T03:34:54.094Z,9.03
2018-07-23T03:37:22.815Z,7.83
2018-07-23T03:39:51.639Z,8.13
2018-07-23T03:42:20.339Z,8.83
2018-07-23T03:44:49.036Z,8.80
2018-07-23T03:47:18.347Z,10.13
2018-07-23T03:49:47.155Z,12.07
2018-07-23T03:52:15.917Z,9.67
2018-07-23T03:54:44.724Z,10.10
2018-07-23T03:57:13.400Z,12.37
2018-07-23T03:59:42.127Z,11.30
2018-07-23T04:02:10.833Z,11.17
2018-07-23T04:04:39.437Z,12.60
2018-07-23T04:07:08.050Z,11.97
2018-07-23T04:09:37.499Z,12.03
2018-07-23T04:12:06.206Z,12.30
2018-07-23T04:14:34.982Z,12.20
2018-07-23T04:17:03.697Z,13.13
2018-07-23T04:19:32.453Z,11.53
2018-07-23T04:22:01.285Z,11.17
2018-07-23T04:24:29.997Z,11.63
2018-07-23T04:26:58.780Z,9.93
2018-07-23T04:29:27.483Z,12.37
2018-07-23T04:31:56.242Z,13.17
2018-07-23T04:34:24.897Z,13.43
2018-07-23T04:36:53.620Z,12.50
2018-07-23T04:39:22.340Z,13.57
2018-07-23T04:41:51.128Z,13.93
2018-07-23T04:44:19.868Z,14.13
2018-07-23T04:46:48.519Z,13.57
2018-07-23T04:49:17.288Z,12.20
2018-07-23T04:51:45.965Z,14.57
2018-07-23T04:54:14.648Z,14.67
2018-07-23T04:56:43.316Z,15.40
2018-07-23T04:59:12.041Z,13.53
2018-07-23T05:01:40.899Z,16.80
2018-07-23T05:04:09.724Z,16.00
2018-07-23T05:06:38.384Z,14.80
2018-07-23T05:09:09.341Z,16.13
2018-07-23T05:11:39.164Z,16.30
2018-07-23T05:14:08.529Z,13.50
2018-07-23T05:16:37.269Z,15.67
2018-07-23T05:19:06.153Z,13.53
2018-07-23T05:21:34.905Z,14.63
2018-07-23T05:24:03.634Z,15.90
2018-07-23T05:26:32.377Z,14.83
2018-07-23T05:29:01.186Z,15.27
2018-07-23T05:31:31.314Z,14.83
2018-07-23T05:34:00.076Z,15.77
2018-07-23T05:36:28.770Z,16.30
2018-07-23T05:38:57.631Z,16.70
2018-07-23T05:41:27.504Z,15.97
2018-07-23T05:43:56.448Z,16.33
2018-07-23T05:46:25.252Z,15.67
2018-07-23T05:48:54.044Z,16.23
2018-07-23T05:51:22.731Z,15.63
2018-07-23T05:53:51.463Z,13.97
2018-07-23T05:56:20.708Z,15.17
2018-07-23T05:58:49.406Z,14.83
2018-07-23T06:01:18.236Z,14.53
2018-07-23T06:03:47.111Z,14.50
2018-07-23T06:06:16.369Z,13.60
2018-07-23T06:08:45.247Z,12.00
2018-07-23T06:11:13.985Z,13.33
2018-07-23T06:13:42.779Z,13.27
2018-07-23T06:16:11.602Z,11.90
2018-07-23T06:18:40.365Z,12.03
2018-07-23T06:21:09.125Z,12.17
2018-07-23T06:23:37.906Z,12.00
2018-07-23T06:26:06.886Z,11.73
2018-07-23T06:28:35.574Z,11.90
2018-07-23T06:31:04.244Z,10.10
2018-07-23T06:33:32.968Z,9.47
2018-07-23T06:36:01.699Z,10.00
2018-07-23T06:38:30.461Z,8.23
2018-07-23T06:40:59.156Z,7.10
2018-07-23T06:43:27.852Z,5.77
2018-07-23T06:45:56.517Z,5.70
2018-07-23T06:48:25.151Z,6.77
2018-07-23T06:50:53.830Z,5.43
2018-07-23T06:53:22.558Z,5.53
2018-07-23T06:55:51.185Z,6.37
2018-07-23T06:58:19.997Z,5.73
2018-07-23T07:00:48.717Z,5.50
2018-07-23T07:03:17.435Z,5.37
2018-07-23T07:05:46.291Z,5.13
2018-07-23T07:08:14.972Z,5.00
2018-07-23T07:10:43.693Z,4.27
2018-07-23T07:13:12.376Z,4.27
2018-07-23T07:15:41.017Z,3.73
2018-07-23T07:18:09.669Z,2.40
2018-07-23T07:20:38.313Z,2.40
2018-07-23T07:23:07.133Z,2.33
2018-07-23T07:25:35.902Z,2.70
2018-07-23T07:28:04.574Z,2.30
2018-07-23T07:30:33.715Z,2.20
2018-07-23T07:33:02.471Z,2.33
2018-07-23T07:35:31.110Z,3.10
2018-07-23T07:38:00.355Z,3.37
2018-07-23T07:40:29.176Z,3.20
2018-07-23T07:42:58.195Z,2.80
2018-07-23T07:45:29.297Z,3.53
2018-07-23T07:47:58.122Z,4.30
2018-07-23T07:50:26.941Z,3.43
2018-07-23T07:52:56.566Z,3.83
2018-07-23T07:55:25.428Z,5.63
2018-07-23T07:57:54.336Z,5.57
2018-07-23T08:00:23.180Z,5.50
2018-07-23T08:02:52.031Z,4.63
2018-07-23T08:05:20.835Z,5.60
2018-07-23T08:07:50.471Z,5.10
2018-07-23T08:10:19.256Z,5.90
2018-07-23T08:12:48.009Z,6.60
2018-07-23T08:15:16.804Z,6.80
2018-07-23T08:17:53.572Z,6.07
2018-07-23T08:20:22.489Z,7.67
2018-07-23T08:22:51.212Z,5.70
2018-07-23T08:25:22.080Z,5.57
2018-07-23T08:27:50.852Z,5.43
2018-07-23T08:30:19.806Z,6.17
2018-07-23T08:32:54.068Z,5.57
2018-07-23T08:35:22.854Z,5.87
2018-07-23T08:37:51.664Z,6.10
2018-07-23T08:40:20.468Z,5.77
2018-07-23T08:42:49.127Z,6.57
2018-07-23T08:45:17.853Z,6.43
2018-07-23T08:47:46.624Z,7.17
2018-07-23T08:50:15.406Z,6.40
2018-07-23T08:52:44.172Z,5.97
2018-07-23T08:55:12.833Z,6.63
2018-07-23T08:57:41.550Z,6.20
2018-07-23T09:00:10.252Z,5.67
2018-07-23T09:02:38.928Z,6.17
2018-07-23T09:05:07.684Z,6.80
2018-07-23T09:07:36.928Z,6.30
2018-07-23T09:10:05.936Z,7.30
2018-07-23T09:12:34.814Z,6.33
2018-07-23T09:15:03.716Z,6.17
2018-07-23T09:17:32.379Z,6.47
2018-07-23T09:20:01.156Z,7.20
2018-07-23T09:22:29.960Z,7.40
2018-07-23T09:24:58.767Z,7.33
2018-07-23T09:27:27.428Z,7.00
2018-07-23T09:29:56.143Z,7.83
2018-07-23T09:32:25.043Z,7.13
2018-07-23T09:34:53.712Z,8.10
2018-07-23T09:37:22.498Z,5.90
2018-07-23T09:39:51.622Z,7.30
2018-07-23T09:42:24.561Z,6.57
2018-07-23T09:44:53.609Z,7.53
2018-07-23T09:47:22.386Z,7.63
2018-07-23T09:49:51.149Z,5.73
2018-07-23T09:52:19.942Z,6.57
2018-07-23T09:54:48.682Z,6.77
2018-07-23T09:57:17.976Z,5.63
2018-07-23T09:59:46.858Z,4.97
2018-07-23T10:02:16.608Z,5.70
2018-07-23T10:04:45.423Z,6.50
2018-07-23T10:07:14.129Z,4.90
2018-07-23T10:09:43.527Z,6.33
2018-07-23T10:12:13.184Z,5.23
2018-07-23T10:14:42.186Z,5.13
2018-07-23T10:17:11.147Z,5.33
2018-07-23T10:19:39.937Z,5.23
2018-07-23T10:22:08.640Z,5.17
2018-07-23T10:24:37.402Z,5.03
2018-07-23T10:27:06.153Z,4.70
2018-07-23T10:29:35.042Z,6.70
2018-07-23T10:32:03.887Z,5.23
2018-07-23T10:34:32.602Z,5.40
2018-07-23T10:37:01.302Z,5.37
2018-07-23T10:39:29.924Z,4.70
2018-07-23T10:41:58.732Z,4.80
2018-07-23T10:44:27.395Z,4.30
2018-07-23T10:46:56.148Z,4.03
2018-07-23T10:49:24.860Z,4.10
2018-07-23T10:51:53.532Z,4.93
2018-07-23T10:54:22.262Z,4.00
2018-07-23T10:56:50.953Z,3.03
2018-07-23T10:59:19.739Z,3.97
2018-07-23T11:01:48.539Z,4.62
2018-07-23T11:04:17.360Z,4.53
2018-07-23T11:06:46.096Z,3.57
2018-07-23T11:09:14.888Z,3.87
2018-07-23T11:11:43.552Z,4.90
2018-07-23T11:14:12.198Z,4.73
2018-07-23T11:16:40.857Z,4.60
2018-07-23T11:19:09.824Z,4.60
2018-07-23T11:21:38.791Z,4.70
2018-07-23T11:24:07.552Z,4.20
2018-07-23T11:26:36.277Z,4.67
2018-07-23T11:29:05.146Z,3.93
2018-07-23T11:31:33.897Z,3.23
2018-07-23T11:34:02.610Z,3.50
2018-07-23T11:36:31.337Z,3.77
2018-07-23T11:39:00.073Z,4.83
2018-07-23T11:41:28.963Z,4.60
2018-07-23T11:43:57.716Z,4.13
2018-07-23T11:46:26.586Z,4.20
2018-07-23T11:48:55.248Z,4.10
2018-07-23T11:51:23.976Z,3.80
2018-07-23T11:53:52.710Z,4.53
2018-07-23T11:56:21.562Z,4.77
2018-07-23T11:58:50.264Z,4.30
2018-07-23T12:01:18.990Z,4.53
2018-07-23T12:03:47.738Z,4.30
2018-07-23T12:06:16.400Z,4.80
2018-07-23T12:08:45.184Z,4.10
2018-07-23T12:11:15.282Z,4.20
2018-07-23T12:13:45.581Z,4.23
2018-07-23T12:16:15.081Z,4.53
2018-07-23T12:18:43.777Z,4.97
2018-07-23T12:21:12.563Z,4.37
2018-07-23T12:23:41.397Z,4.73
2018-07-23T12:26:10.168Z,4.20
2018-07-23T12:28:38.868Z,4.13
2018-07-23T12:31:07.641Z,4.30
2018-07-23T12:33:36.399Z,4.47
2018-07-23T12:36:05.121Z,4.00
2018-07-23T12:38:33.875Z,4.10
2018-07-23T12:41:02.683Z,4.00
2018-07-23T12:43:31.443Z,4.47
2018-07-23T12:46:00.164Z,3.93
2018-07-23T12:48:28.986Z,3.83
2018-07-23T12:50:57.709Z,3.43
2018-07-23T12:53:26.472Z,3.50
2018-07-23T12:55:55.238Z,3.92
2018-07-23T12:58:24.033Z,3.90
2018-07-23T13:00:52.771Z,3.87
2018-07-23T13:03:21.589Z,3.85
2018-07-23T13:05:50.410Z,4.00
2018-07-23T13:08:19.085Z,3.80
2018-07-23T13:10:47.771Z,3.43
2018-07-23T13:13:17.515Z,3.40
2018-07-23T13:15:46.173Z,4.37
2018-07-23T13:18:14.937Z,3.23
2018-07-23T13:20:43.716Z,4.10
2018-07-23T13:23:12.601Z,3.58
2018-07-23T13:25:41.548Z,3.35
2018-07-23T13:28:10.363Z,3.87
2018-07-23T13:30:39.121Z,3.77
2018-07-23T13:33:07.863Z,3.42
2018-07-23T13:35:36.579Z,3.85
2018-07-23T13:38:06.007Z,4.05
2018-07-23T13:40:35.091Z,4.00
2018-07-23T13:43:04.044Z,3.50
2018-07-23T13:45:33.094Z,3.47
2018-07-23T13:48:01.793Z,4.13
2018-07-23T13:50:30.543Z,3.97
2018-07-23T13:52:59.265Z,4.00
2018-07-23T13:55:28.082Z,3.70
2018-07-23T13:57:56.832Z,4.00
2018-07-23T14:00:25.461Z,3.70
2018-07-23T14:02:54.292Z,3.70
2018-07-23T14:05:23.330Z,3.53
2018-07-23T14:07:51.980Z,3.23
2018-07-23T14:10:20.781Z,3.43
2018-07-23T14:12:49.614Z,3.63
2018-07-23T14:15:18.672Z,3.57
2018-07-23T14:17:47.397Z,3.23
2018-07-23T14:20:16.167Z,3.93
2018-07-23T14:22:44.811Z,3.37
2018-07-23T14:25:13.841Z,3.10
2018-07-23T14:27:42.564Z,3.40
2018-07-23T14:30:11.464Z,3.45
2018-07-23T14:32:40.502Z,3.55
2018-07-23T14:35:09.480Z,3.50
2018-07-23T14:37:38.301Z,3.50
2018-07-23T14:40:07.139Z,3.10
2018-07-23T14:42:36.430Z,3.20
2018-07-23T14:45:05.627Z,3.17
2018-07-23T14:47:34.401Z,3.27
2018-07-23T14:50:03.085Z,2.77
2018-07-23T14:52:31.871Z,3.40
2018-07-23T14:55:00.608Z,3.13
2018-07-23T14:57:29.477Z,3.43
2018-07-23T14:59:58.139Z,3.07
2018-07-23T15:02:26.900Z,3.23
2018-07-23T15:04:55.629Z,3.03
2018-07-23T15:07:24.427Z,2.97
2018-07-23T15:09:53.147Z,3.23
2018-07-23T15:12:21.786Z,3.07
2018-07-23T15:14:50.610Z,3.62
2018-07-23T15:17:19.226Z,3.23
2018-07-23T15:19:47.942Z,3.67
2018-07-23T15:22:16.731Z,3.40
2018-07-23T15:24:45.538Z,3.43
2018-07-23T15:27:14.254Z,3.23
2018-07-23T15:29:43.435Z,3.00
2018-07-23T15:32:12.621Z,3.20
2018-07-23T15:34:41.297Z,3.17
2018-07-23T15:37:10.072Z,3.17
2018-07-23T15:39:38.783Z,3.03
2018-07-23T15:42:07.503Z,2.80
2018-07-23T15:44:36.558Z,2.90
2018-07-23T15:47:05.349Z,3.10
2018-07-23T15:49:34.159Z,3.30
2018-07-23T15:52:02.885Z,3.23
2018-07-23T15:54:31.524Z,3.10
2018-07-23T15:57:00.363Z,2.83
2018-07-23T15:59:29.166Z,2.90
2018-07-23T16:01:57.966Z,2.73
2018-07-23T16:04:26.722Z,3.20
2018-07-23T16:06:55.467Z,2.93
2018-07-23T16:09:24.234Z,2.77
2018-07-23T16:11:52.909Z,2.70
2018-07-23T16:14:21.787Z,2.97
2018-07-23T16:16:50.810Z,2.30
2018-07-23T16:19:19.569Z,2.60
2018-07-23T16:21:48.228Z,2.93
2018-07-23T16:24:17.079Z,2.73
2018-07-23T16:26:45.784Z,3.37
2018-07-23T16:29:14.501Z,2.50
2018-07-23T16:31:43.268Z,2.90
2018-07-23T16:34:11.980Z,7.10
2018-07-23T16:36:40.693Z,2.90
2018-07-23T16:39:11.736Z,2.27
2018-07-23T16:41:40.424Z,2.63
2018-07-23T16:44:09.430Z,3.03
2018-07-23T16:46:38.454Z,2.97
2018-07-23T16:49:07.256Z,2.80
2018-07-23T16:51:35.913Z,2.73
2018-07-23T16:54:04.744Z,2.93
2018-07-23T16:56:33.520Z,3.47
2018-07-23T16:59:02.320Z,3.50
2018-07-23T17:01:31.051Z,3.03
2018-07-23T17:03:59.817Z,3.13
2018-07-23T17:06:28.537Z,3.10
2018-07-23T17:08:57.320Z,3.20
2018-07-23T17:11:25.967Z,3.23
2018-07-23T17:13:54.661Z,3.03
2018-07-23T17:16:23.447Z,2.80
2018-07-23T17:18:53.108Z,3.23
2018-07-23T17:21:21.908Z,3.43
2018-07-23T17:23:50.679Z,3.33
2018-07-23T17:26:19.344Z,3.60
2018-07-23T17:28:48.072Z,4.87
2018-07-23T17:31:16.778Z,3.40
2018-07-23T17:33:45.436Z,3.17
2018-07-23T17:36:14.281Z,14.57
2018-07-23T17:38:43.115Z,6.63
2018-07-23T17:41:11.840Z,3.40
2018-07-23T17:43:40.596Z,3.43
2018-07-23T17:46:10.066Z,3.30
2018-07-23T17:48:38.995Z,3.50
2018-07-23T17:51:07.759Z,3.63
2018-07-23T17:53:36.513Z,3.57
2018-07-23T17:56:06.154Z,3.87
2018-07-23T17:58:35.010Z,3.23
2018-07-23T18:01:03.854Z,3.50
2018-07-23T18:03:32.571Z,3.60
2018-07-23T18:06:01.265Z,3.17
2018-07-23T18:08:30.010Z,3.40
2018-07-23T18:10:58.779Z,3.87
2018-07-23T18:13:27.450Z,3.83
2018-07-23T18:15:56.157Z,3.17
2018-07-23T18:18:24.964Z,3.00
2018-07-23T18:20:53.682Z,3.13
2018-07-23T18:23:22.466Z,3.33
2018-07-23T18:25:51.192Z,3.40
2018-07-23T18:28:20.144Z,3.30
2018-07-23T18:30:48.872Z,3.13
2018-07-23T18:33:17.519Z,3.23
2018-07-23T18:35:46.216Z,11.90
2018-07-23T18:38:15.078Z,16.53
2018-07-23T18:40:43.762Z,18.00
2018-07-23T18:43:12.461Z,19.70
2018-07-23T18:45:41.116Z,14.57
2018-07-23T18:48:20.846Z,7.87
2018-07-23T18:50:49.503Z,6.70
2018-07-23T18:53:22.468Z,8.03
2018-07-23T18:55:52.391Z,7.93
2018-07-23T18:58:21.156Z,7.40
2018-07-23T19:00:49.838Z,8.67
2018-07-23T19:03:18.585Z,8.97
2018-07-23T19:05:47.275Z,8.53
2018-07-23T19:08:16.061Z,8.07
2018-07-23T19:10:44.783Z,7.37
2018-07-23T19:13:13.513Z,7.80
2018-07-23T19:15:42.235Z,5.80
2018-07-23T19:18:11.014Z,5.23
2018-07-23T19:20:40.596Z,5.00
2018-07-23T19:23:09.296Z,4.60
2018-07-23T19:25:38.001Z,5.63
2018-07-23T19:28:06.734Z,6.60
2018-07-23T19:30:35.562Z,6.13
2018-07-23T19:33:04.305Z,5.77
2018-07-23T19:35:33.062Z,5.43
2018-07-23T19:38:01.762Z,4.23
2018-07-23T19:40:30.629Z,4.50
2018-07-23T19:42:59.306Z,4.07
2018-07-23T19:45:28.047Z,3.93
2018-07-23T19:47:56.807Z,3.97
2018-07-23T19:50:25.580Z,4.00
2018-07-23T19:52:54.404Z,4.93
2018-07-23T19:55:23.942Z,3.73
2018-07-23T19:57:52.650Z,3.80
2018-07-23T20:00:21.386Z,3.70
2018-07-23T20:02:50.272Z,3.83
2018-07-23T20:05:19.099Z,3.80
2018-07-23T20:07:47.734Z,3.80
2018-07-23T20:10:16.562Z,4.33
2018-07-23T20:12:45.231Z,5.23
2018-07-23T20:15:14.791Z,4.30
2018-07-23T20:17:43.689Z,3.90
2018-07-23T20:20:12.446Z,3.90
2018-07-23T20:22:41.603Z,4.20
2018-07-23T20:25:10.224Z,4.20
2018-07-23T20:27:38.968Z,4.10
2018-07-23T20:30:07.908Z,4.30
2018-07-23T20:32:36.730Z,4.10
2018-07-23T20:35:05.490Z,3.77
2018-07-23T20:37:34.189Z,4.00
2018-07-23T20:40:02.995Z,4.37
2018-07-23T20:42:31.745Z,4.70
2018-07-23T20:45:00.537Z,4.23
2018-07-23T20:47:29.376Z,4.20
2018-07-23T20:49:58.135Z,4.00
2018-07-23T20:52:26.865Z,4.27
2018-07-23T20:54:55.692Z,4.37
2018-07-23T20:57:24.538Z,4.60
2018-07-23T20:59:53.280Z,4.83
2018-07-23T21:02:21.964Z,4.50
2018-07-23T21:04:50.754Z,4.43
2018-07-23T21:07:19.432Z,4.73
2018-07-23T21:09:48.419Z,4.90
2018-07-23T21:12:17.612Z,4.80
2018-07-23T21:14:46.712Z,4.63
2018-07-23T21:17:15.526Z,4.67
2018-07-23T21:19:44.305Z,4.93
2018-07-23T21:22:13.132Z,4.33
2018-07-23T21:24:42.848Z,4.70
2018-07-23T21:27:11.608Z,4.80
2018-07-23T21:29:40.257Z,4.77
2018-07-23T21:32:09.186Z,4.40
2018-07-23T21:34:37.839Z,4.37
2018-07-23T21:37:06.553Z,5.10
2018-07-23T21:39:35.247Z,4.70
2018-07-23T21:42:04.060Z,4.87
2018-07-23T21:44:32.903Z,4.60
2018-07-23T21:47:01.736Z,5.17
2018-07-23T21:49:30.692Z,5.10
2018-07-23T21:51:59.720Z,5.00
2018-07-23T21:54:28.919Z,5.30
2018-07-23T21:56:57.770Z,4.73
2018-07-23T21:59:26.532Z,4.77
2018-07-23T22:01:55.356Z,5.93
2018-07-23T22:04:24.225Z,6.50
2018-07-23T22:06:53.313Z,6.07
2018-07-23T22:09:22.182Z,5.40
2018-07-23T22:11:50.962Z,5.47
2018-07-23T22:14:19.678Z,5.43
2018-07-23T22:16:48.359Z,5.30
2018-07-23T22:19:17.052Z,4.50
2018-07-23T22:21:45.739Z,4.90
2018-07-23T22:24:14.429Z,5.33
2018-07-23T22:26:43.118Z,4.97
2018-07-23T22:29:11.791Z,5.10
2018-07-23T22:31:40.409Z,5.30
2018-07-23T22:34:09.149Z,4.40
2018-07-23T22:36:37.788Z,5.03
2018-07-23T22:39:08.729Z,4.93
2018-07-23T22:41:37.685Z,5.53
2018-07-23T22:44:06.401Z,4.83
2018-07-23T22:46:35.040Z,4.80
2018-07-23T22:49:03.710Z,4.63
2018-07-23T22:51:32.361Z,4.93
2018-07-23T22:54:01.074Z,5.30
2018-07-23T22:56:29.858Z,5.47
2018-07-23T22:58:58.520Z,4.97
2018-07-23T23:01:27.213Z,4.73
2018-07-23T23:03:55.899Z,5.23
2018-07-23T23:06:24.640Z,5.37
2018-07-23T23:08:53.261Z,4.93
2018-07-23T23:11:21.903Z,4.70
2018-07-23T23:13:50.637Z,5.77
2018-07-23T23:16:19.375Z,5.40
2018-07-23T23:18:48.085Z,4.87
2018-07-23T23:21:16.808Z,5.03
2018-07-23T23:23:45.505Z,4.30
2018-07-23T23:26:15.687Z,5.40
2018-07-23T23:28:44.383Z,5.33
2018-07-23T23:31:13.064Z,5.40
2018-07-23T23:33:41.721Z,4.80
2018-07-23T23:36:10.335Z,4.90
2018-07-23T23:38:38.994Z,5.40
2018-07-23T23:41:07.831Z,4.83
2018-07-23T23:43:36.489Z,4.30
2018-07-23T23:46:05.213Z,4.60
2018-07-23T23:48:33.890Z,4.80
2018-07-23T23:51:02.568Z,4.37
2018-07-23T23:53:31.259Z,4.50
2018-07-23T23:55:59.909Z,4.70
2018-07-23T23:58:28.624Z,5.07
